createdAt,value
2017-12-16T00:00:34.336Z,13.53
2017-12-16T00:01:36.807Z,12.83
2017-12-16T00:02:39.258Z,8.97
2017-12-16T00:03:41.716Z,17.63
2017-12-16T00:04:44.188Z,13.07
2017-12-16T00:05:46.721Z,18.20
2017-12-16T00:06:49.188Z,16.13
2017-12-16T00:07:51.661Z,17.07
2017-12-16T00:08:54.136Z,10.73
2017-12-16T00:09:56.617Z,10.50
2017-12-16T00:10:59.072Z,9.63
2017-12-16T00:12:01.545Z,8.77
2017-12-16T00:13:03.998Z,12.70
2017-12-16T00:14:06.461Z,9.83
2017-12-16T00:15:08.928Z,10.13
2017-12-16T00:16:11.401Z,15.50
2017-12-16T00:17:13.888Z,7.57
2017-12-16T00:18:16.343Z,9.17
2017-12-16T00:19:18.813Z,12.50
2017-12-16T00:20:21.267Z,10.27
2017-12-16T00:21:23.727Z,11.20
2017-12-16T00:22:26.182Z,11.90
2017-12-16T00:23:28.657Z,12.77
2017-12-16T00:24:31.132Z,10.10
2017-12-16T00:25:33.587Z,8.60
2017-12-16T00:26:36.132Z,11.23
2017-12-16T00:27:38.591Z,8.00
2017-12-16T00:28:41.042Z,9.10
2017-12-16T00:29:43.495Z,15.87
2017-12-16T00:30:45.954Z,7.80
2017-12-16T00:31:48.419Z,10.93
2017-12-16T00:32:50.905Z,10.43
2017-12-16T00:33:53.368Z,9.63
2017-12-16T00:34:55.836Z,12.87
2017-12-16T00:35:58.304Z,7.90
2017-12-16T00:37:00.755Z,9.73
2017-12-16T00:38:03.225Z,9.20
2017-12-16T00:39:05.675Z,8.53
2017-12-16T00:40:08.153Z,8.43
2017-12-16T00:41:10.628Z,10.47
2017-12-16T00:42:13.082Z,11.40
2017-12-16T00:43:15.557Z,6.27
2017-12-16T00:44:18.015Z,11.37
2017-12-16T00:45:20.466Z,8.80
2017-12-16T00:46:22.942Z,10.37
2017-12-16T00:47:25.419Z,10.97
2017-12-16T00:48:27.916Z,10.73
2017-12-16T00:49:30.370Z,8.70
2017-12-16T00:50:32.839Z,11.07
2017-12-16T00:51:35.304Z,6.77
2017-12-16T00:52:37.776Z,8.57
2017-12-16T00:53:40.287Z,8.80
2017-12-16T00:54:42.742Z,10.37
2017-12-16T00:55:45.208Z,11.57
2017-12-16T00:56:47.671Z,10.43
2017-12-16T00:57:50.126Z,10.77
2017-12-16T00:58:52.603Z,8.83
2017-12-16T00:59:55.080Z,10.40
2017-12-16T01:00:57.582Z,7.70
2017-12-16T01:02:00.047Z,12.33
2017-12-16T01:03:02.510Z,11.03
2017-12-16T01:04:04.967Z,7.43
2017-12-16T01:05:07.423Z,8.03
2017-12-16T01:06:09.889Z,7.47
2017-12-16T01:07:12.373Z,10.57
2017-12-16T01:08:14.837Z,6.43
2017-12-16T01:09:17.290Z,8.07
2017-12-16T01:10:19.756Z,7.83
2017-12-16T01:11:22.225Z,8.00
2017-12-16T01:12:24.690Z,7.20
2017-12-16T01:13:27.159Z,10.03
2017-12-16T01:14:29.618Z,12.00
2017-12-16T01:15:32.080Z,6.20
2017-12-16T01:16:34.567Z,10.23
2017-12-16T01:17:37.041Z,10.87
2017-12-16T01:18:39.505Z,6.40
2017-12-16T01:19:41.959Z,6.10
2017-12-16T01:20:44.411Z,6.70
2017-12-16T01:21:46.864Z,9.53
2017-12-16T01:22:49.323Z,10.23
2017-12-16T01:23:51.788Z,7.93
2017-12-16T01:24:54.242Z,6.13
2017-12-16T01:25:56.718Z,8.53
2017-12-16T01:26:59.204Z,8.47
2017-12-16T01:28:01.667Z,10.40
2017-12-16T01:29:04.137Z,4.97
2017-12-16T01:30:06.594Z,9.83
2017-12-16T01:31:09.071Z,6.67
2017-12-16T01:32:11.522Z,5.63
2017-12-16T01:33:13.982Z,8.93
2017-12-16T01:34:28.225Z,7.90
2017-12-16T01:35:42.582Z,7.97
2017-12-16T01:36:56.783Z,8.73
2017-12-16T01:38:11.041Z,6.70
2017-12-16T01:39:13.498Z,7.77
2017-12-16T01:40:15.962Z,9.30
2017-12-16T01:41:18.428Z,5.67
2017-12-16T01:42:20.882Z,9.10
2017-12-16T01:43:23.353Z,10.63
2017-12-16T01:44:25.817Z,7.10
2017-12-16T01:45:28.276Z,7.30
2017-12-16T01:46:30.747Z,6.80
2017-12-16T01:47:33.204Z,6.67
2017-12-16T01:48:35.677Z,10.40
2017-12-16T01:49:38.131Z,7.10
2017-12-16T01:50:40.586Z,6.00
2017-12-16T01:51:43.052Z,5.43
2017-12-16T01:52:45.525Z,5.80
2017-12-16T01:53:47.988Z,8.83
2017-12-16T01:54:50.438Z,5.70
2017-12-16T01:55:52.898Z,9.00
2017-12-16T01:56:55.414Z,8.03
2017-12-16T01:57:57.871Z,11.30
2017-12-16T01:59:00.330Z,6.67
2017-12-16T02:00:02.837Z,9.40
2017-12-16T02:01:05.291Z,6.77
2017-12-16T02:02:07.761Z,9.63
2017-12-16T02:03:10.219Z,8.70
2017-12-16T02:04:12.674Z,6.70
2017-12-16T02:05:15.143Z,7.10
2017-12-16T02:06:17.610Z,7.73
2017-12-16T02:07:20.076Z,6.80
2017-12-16T02:08:22.542Z,7.50
2017-12-16T02:09:24.994Z,7.97
2017-12-16T02:10:27.461Z,7.00
2017-12-16T02:11:29.914Z,7.30
2017-12-16T02:12:32.378Z,7.23
2017-12-16T02:13:34.849Z,6.03
2017-12-16T02:14:37.357Z,5.93
2017-12-16T02:15:39.824Z,8.17
2017-12-16T02:16:42.278Z,8.00
2017-12-16T02:17:44.749Z,20.07
2017-12-16T02:18:47.195Z,7.97
2017-12-16T02:19:49.647Z,9.03
2017-12-16T02:20:52.109Z,7.00
2017-12-16T02:21:54.567Z,7.00
2017-12-16T02:22:57.042Z,9.23
2017-12-16T02:23:59.494Z,5.63
2017-12-16T02:25:01.966Z,20.07
2017-12-16T02:26:04.428Z,6.80
2017-12-16T02:27:06.878Z,6.93
2017-12-16T02:28:09.347Z,8.63
2017-12-16T02:29:11.832Z,7.10
2017-12-16T02:30:14.297Z,6.60
2017-12-16T02:31:16.777Z,7.50
2017-12-16T02:32:19.251Z,13.53
2017-12-16T02:33:21.732Z,6.80
2017-12-16T02:34:24.186Z,8.20
2017-12-16T02:35:26.688Z,10.47
2017-12-16T02:36:29.153Z,7.90
2017-12-16T02:37:31.684Z,9.17
2017-12-16T02:38:34.146Z,7.20
2017-12-16T02:39:36.616Z,10.33
2017-12-16T02:40:39.080Z,5.37
2017-12-16T02:41:41.546Z,6.30
2017-12-16T02:42:43.999Z,9.37
2017-12-16T02:43:46.475Z,6.73
2017-12-16T02:44:48.923Z,7.93
2017-12-16T02:45:51.380Z,9.10
2017-12-16T02:46:53.849Z,7.23
2017-12-16T02:47:56.303Z,8.40
2017-12-16T02:48:58.770Z,4.10
2017-12-16T02:50:01.227Z,6.70
2017-12-16T02:51:03.692Z,5.90
2017-12-16T02:52:06.174Z,8.70
2017-12-16T02:53:08.651Z,15.50
2017-12-16T02:54:11.135Z,6.40
2017-12-16T02:55:13.614Z,6.63
2017-12-16T02:56:16.066Z,4.80
2017-12-16T02:57:18.533Z,5.93
2017-12-16T02:58:21.002Z,5.33
2017-12-16T02:59:23.540Z,9.00
2017-12-16T03:00:26.008Z,13.37
2017-12-16T03:01:28.463Z,9.03
2017-12-16T03:02:30.923Z,5.20
2017-12-16T03:03:33.385Z,9.93
2017-12-16T03:04:35.852Z,10.40
2017-12-16T03:05:38.316Z,6.90
2017-12-16T03:06:40.770Z,9.60
2017-12-16T03:07:43.244Z,13.27
2017-12-16T03:08:45.708Z,7.00
2017-12-16T03:09:48.177Z,7.67
2017-12-16T03:10:50.644Z,7.90
2017-12-16T03:11:53.098Z,10.63
2017-12-16T03:12:55.547Z,6.43
2017-12-16T03:13:57.999Z,8.80
2017-12-16T03:15:00.470Z,7.90
2017-12-16T03:16:02.927Z,6.20
2017-12-16T03:17:05.492Z,5.67
2017-12-16T03:18:07.961Z,6.60
2017-12-16T03:19:10.419Z,10.50
2017-12-16T03:20:12.923Z,5.70
2017-12-16T03:21:15.374Z,4.43
2017-12-16T03:22:18.696Z,6.90
2017-12-16T03:23:21.150Z,9.20
2017-12-16T03:24:23.622Z,8.03
2017-12-16T03:25:26.082Z,7.17
2017-12-16T03:26:28.535Z,5.90
2017-12-16T03:27:31.012Z,5.80
2017-12-16T03:28:33.476Z,4.33
2017-12-16T03:29:35.931Z,7.80
2017-12-16T03:30:38.391Z,10.60
2017-12-16T03:31:40.860Z,5.80
2017-12-16T03:32:43.312Z,5.13
2017-12-16T03:33:45.770Z,7.70
2017-12-16T03:34:48.218Z,8.37
2017-12-16T03:35:50.671Z,5.87
2017-12-16T03:36:53.138Z,17.97
2017-12-16T03:37:55.594Z,9.97
2017-12-16T03:38:58.042Z,3.87
2017-12-16T03:40:00.495Z,6.37
2017-12-16T03:41:02.950Z,6.17
2017-12-16T03:42:05.419Z,5.00
2017-12-16T03:43:07.874Z,4.70
2017-12-16T03:44:10.337Z,7.17
2017-12-16T03:45:12.790Z,7.90
2017-12-16T03:46:15.243Z,5.63
2017-12-16T03:47:17.695Z,7.17
2017-12-16T03:48:20.151Z,6.50
2017-12-16T03:49:22.602Z,4.30
2017-12-16T03:50:25.068Z,7.33
2017-12-16T03:51:27.541Z,7.73
2017-12-16T03:52:29.995Z,6.13
2017-12-16T03:53:32.446Z,5.97
2017-12-16T03:54:34.894Z,4.30
2017-12-16T03:55:37.346Z,5.80
2017-12-16T03:56:39.806Z,12.07
2017-12-16T03:57:42.258Z,5.40
2017-12-16T03:58:44.728Z,9.97
2017-12-16T03:59:47.200Z,5.80
2017-12-16T04:00:49.653Z,7.43
2017-12-16T04:01:52.118Z,5.90
2017-12-16T04:02:54.586Z,8.83
2017-12-16T04:03:57.062Z,16.00
2017-12-16T04:04:59.518Z,7.17
2017-12-16T04:06:01.985Z,5.70
2017-12-16T04:07:04.459Z,8.43
2017-12-16T04:08:06.915Z,9.93
2017-12-16T04:09:09.386Z,9.30
2017-12-16T04:10:11.857Z,10.00
2017-12-16T04:11:14.329Z,13.83
2017-12-16T04:12:16.800Z,13.33
2017-12-16T04:13:19.259Z,8.53
2017-12-16T04:14:21.737Z,7.57
2017-12-16T04:15:24.201Z,9.17
2017-12-16T04:16:26.671Z,15.33
2017-12-16T04:17:29.126Z,9.47
2017-12-16T04:18:31.589Z,8.97
2017-12-16T04:19:34.042Z,10.50
2017-12-16T04:20:36.509Z,9.00
2017-12-16T04:21:38.958Z,6.40
2017-12-16T04:22:41.429Z,6.10
2017-12-16T04:23:43.882Z,5.87
2017-12-16T04:24:46.349Z,12.73
2017-12-16T04:25:48.812Z,3.90
2017-12-16T04:26:51.262Z,6.60
2017-12-16T04:27:53.719Z,6.43
2017-12-16T04:28:56.188Z,7.70
2017-12-16T04:29:58.656Z,5.57
2017-12-16T04:31:01.110Z,6.03
2017-12-16T04:32:03.567Z,8.70
2017-12-16T04:33:06.033Z,7.90
2017-12-16T04:34:08.495Z,5.10
2017-12-16T04:35:10.972Z,8.70
2017-12-16T04:36:13.440Z,8.80
2017-12-16T04:37:15.904Z,5.60
2017-12-16T04:38:18.373Z,6.67
2017-12-16T04:39:20.853Z,12.53
2017-12-16T04:40:23.306Z,5.87
2017-12-16T04:41:25.770Z,8.17
2017-12-16T04:42:28.224Z,7.27
2017-12-16T04:43:30.678Z,6.30
2017-12-16T04:44:33.138Z,3.57
2017-12-16T04:45:35.595Z,7.17
2017-12-16T04:46:38.046Z,9.07
2017-12-16T04:47:40.512Z,8.40
2017-12-16T04:48:42.981Z,6.37
2017-12-16T04:49:45.430Z,5.57
2017-12-16T04:50:47.914Z,3.60
2017-12-16T04:51:50.382Z,4.87
2017-12-16T04:52:52.834Z,3.90
2017-12-16T04:53:55.304Z,4.63
2017-12-16T04:54:57.769Z,4.80
2017-12-16T04:56:00.226Z,8.33
2017-12-16T04:57:02.692Z,6.70
2017-12-16T04:58:05.147Z,7.70
2017-12-16T04:59:07.602Z,7.40
2017-12-16T05:00:10.076Z,14.20
2017-12-16T05:01:12.553Z,10.40
2017-12-16T05:02:15.006Z,3.23
2017-12-16T05:03:17.590Z,6.40
2017-12-16T05:04:20.042Z,4.00
2017-12-16T05:05:22.498Z,4.97
2017-12-16T05:06:24.964Z,5.60
2017-12-16T05:07:27.436Z,4.00
2017-12-16T05:08:29.910Z,4.87
2017-12-16T05:09:32.387Z,6.07
2017-12-16T05:10:34.842Z,5.50
2017-12-16T05:11:37.298Z,14.57
2017-12-16T05:12:39.755Z,2.87
2017-12-16T05:13:42.211Z,3.47
2017-12-16T05:14:44.691Z,8.70
2017-12-16T05:15:47.142Z,7.20
2017-12-16T05:16:49.594Z,8.83
2017-12-16T05:17:52.056Z,3.97
2017-12-16T05:18:54.524Z,3.20
2017-12-16T05:19:56.987Z,11.27
2017-12-16T05:20:59.442Z,5.63
2017-12-16T05:22:01.929Z,9.70
2017-12-16T05:23:04.401Z,6.50
2017-12-16T05:24:06.868Z,4.43
2017-12-16T05:25:09.324Z,5.90
2017-12-16T05:26:11.796Z,11.67
2017-12-16T05:27:14.264Z,4.67
2017-12-16T05:28:16.731Z,2.93
2017-12-16T05:29:19.223Z,5.10
2017-12-16T05:30:21.679Z,4.67
2017-12-16T05:31:24.157Z,4.03
2017-12-16T05:32:26.621Z,7.70
2017-12-16T05:33:29.074Z,5.10
2017-12-16T05:34:31.540Z,5.20
2017-12-16T05:35:34.006Z,7.07
2017-12-16T05:36:36.476Z,3.90
2017-12-16T05:37:38.953Z,8.50
2017-12-16T05:38:41.429Z,8.20
2017-12-16T05:39:43.878Z,5.87
2017-12-16T05:40:46.344Z,4.73
2017-12-16T05:41:48.799Z,7.33
2017-12-16T05:42:51.264Z,3.40
2017-12-16T05:43:53.736Z,4.50
2017-12-16T05:44:56.190Z,7.30
2017-12-16T05:45:58.664Z,6.23
2017-12-16T05:47:01.114Z,3.53
2017-12-16T05:48:03.580Z,8.33
2017-12-16T05:49:06.031Z,3.20
2017-12-16T05:50:08.500Z,5.47
2017-12-16T05:51:10.950Z,2.73
2017-12-16T05:52:13.420Z,4.43
2017-12-16T05:53:15.876Z,6.63
2017-12-16T05:54:18.353Z,3.10
2017-12-16T05:55:20.802Z,4.87
2017-12-16T05:56:23.262Z,3.67
2017-12-16T05:57:25.732Z,3.70
2017-12-16T05:58:28.196Z,5.97
2017-12-16T05:59:30.647Z,4.03
2017-12-16T06:00:33.098Z,3.67
2017-12-16T06:01:35.572Z,5.85
2017-12-16T06:02:38.018Z,4.97
2017-12-16T06:03:40.480Z,3.10
2017-12-16T06:04:43.104Z,3.20
2017-12-16T06:05:45.568Z,4.17
2017-12-16T06:06:48.023Z,7.50
2017-12-16T06:07:50.508Z,5.33
2017-12-16T06:08:52.959Z,3.10
2017-12-16T06:09:55.414Z,3.07
2017-12-16T06:10:57.870Z,2.73
2017-12-16T06:12:00.406Z,7.50
2017-12-16T06:13:02.879Z,4.63
2017-12-16T06:14:05.352Z,4.50
2017-12-16T06:15:07.816Z,5.60
2017-12-16T06:16:10.280Z,8.83
2017-12-16T06:17:12.754Z,6.23
2017-12-16T06:18:15.207Z,6.10
2017-12-16T06:19:17.690Z,6.13
2017-12-16T06:20:20.147Z,3.40
2017-12-16T06:21:22.708Z,5.53
2017-12-16T06:22:25.124Z,5.30
2017-12-16T06:23:27.633Z,5.25
2017-12-16T06:24:30.097Z,3.20
2017-12-16T06:25:32.573Z,3.77
2017-12-16T06:26:35.039Z,6.10
2017-12-16T06:27:37.503Z,3.00
2017-12-16T06:28:39.977Z,5.83
2017-12-16T06:29:42.430Z,3.33
2017-12-16T06:30:44.883Z,4.87
2017-12-16T06:31:47.347Z,9.33
2017-12-16T06:32:49.810Z,4.45
2017-12-16T06:33:52.288Z,12.25
2017-12-16T06:34:54.752Z,4.20
2017-12-16T06:35:57.220Z,6.47
2017-12-16T06:36:59.688Z,5.67
2017-12-16T06:38:02.164Z,5.50
2017-12-16T06:39:04.633Z,4.63
2017-12-16T06:40:07.086Z,7.93
2017-12-16T06:41:09.542Z,4.77
2017-12-16T06:42:12.009Z,4.47
2017-12-16T06:43:14.522Z,6.00
2017-12-16T06:44:16.932Z,6.80
2017-12-16T06:45:19.396Z,5.13
2017-12-16T06:46:21.865Z,6.60
2017-12-16T06:47:24.343Z,3.47
2017-12-16T06:48:26.856Z,3.80
2017-12-16T06:49:29.315Z,11.03
2017-12-16T06:50:31.779Z,7.95
2017-12-16T06:51:34.249Z,4.57
2017-12-16T06:52:36.712Z,8.40
2017-12-16T06:53:39.171Z,3.62
2017-12-16T06:54:41.645Z,3.53
2017-12-16T06:55:44.111Z,6.20
2017-12-16T06:56:46.575Z,5.55
2017-12-16T06:57:49.053Z,7.22
2017-12-16T06:58:51.506Z,5.20
2017-12-16T06:59:53.980Z,4.32
2017-12-16T07:00:56.449Z,8.43
2017-12-16T07:01:58.912Z,5.60
2017-12-16T07:03:01.397Z,7.53
2017-12-16T07:04:03.846Z,3.00
2017-12-16T07:05:06.329Z,8.77
2017-12-16T07:06:08.792Z,5.20
2017-12-16T07:07:11.274Z,3.50
2017-12-16T07:08:13.744Z,7.00
2017-12-16T07:09:16.209Z,4.40
2017-12-16T07:10:18.773Z,7.53
2017-12-16T07:11:21.255Z,10.18
2017-12-16T07:12:23.726Z,15.23
2017-12-16T07:13:26.303Z,13.13
2017-12-16T07:14:28.777Z,13.83
2017-12-16T07:15:31.242Z,13.80
2017-12-16T07:16:33.728Z,18.92
2017-12-16T07:17:36.194Z,21.85
2017-12-16T07:18:38.671Z,42.27
2017-12-16T07:19:41.148Z,19.87
2017-12-16T07:20:43.766Z,17.37
2017-12-16T07:21:46.256Z,18.90
2017-12-16T07:22:48.728Z,22.73
2017-12-16T07:23:51.200Z,22.57
2017-12-16T07:24:53.692Z,21.97
2017-12-16T07:25:56.219Z,24.33
2017-12-16T07:26:58.646Z,21.17
2017-12-16T07:28:01.113Z,24.40
2017-12-16T07:29:03.573Z,26.83
2017-12-16T07:30:06.046Z,23.55
2017-12-16T07:31:08.527Z,25.03
2017-12-16T07:32:10.986Z,22.07
2017-12-16T07:33:13.468Z,23.57
2017-12-16T07:34:15.952Z,24.08
2017-12-16T07:35:18.430Z,29.40
2017-12-16T07:36:20.911Z,20.80
2017-12-16T07:37:23.464Z,34.55
2017-12-16T07:38:25.931Z,27.20
2017-12-16T07:39:28.404Z,27.20
2017-12-16T07:40:30.880Z,25.93
2017-12-16T07:41:33.338Z,26.80
2017-12-16T07:42:35.802Z,23.20
2017-12-16T07:43:38.263Z,23.63
2017-12-16T07:44:40.743Z,40.55
2017-12-16T07:45:43.206Z,24.67
2017-12-16T07:46:45.685Z,23.40
2017-12-16T07:47:48.164Z,27.93
2017-12-16T07:48:50.656Z,24.67
2017-12-16T07:49:53.292Z,30.93
2017-12-16T07:50:55.771Z,30.50
2017-12-16T07:51:58.238Z,34.30
2017-12-16T07:53:00.727Z,27.73
2017-12-16T07:54:03.212Z,32.13
2017-12-16T07:55:05.691Z,25.80
2017-12-16T07:56:08.176Z,30.92
2017-12-16T07:57:10.643Z,31.17
2017-12-16T07:58:13.102Z,29.03
2017-12-16T07:59:15.593Z,24.95
2017-12-16T08:00:18.082Z,27.00
2017-12-16T08:01:20.575Z,29.60
2017-12-16T08:02:23.061Z,28.15
2017-12-16T08:03:25.530Z,27.17
2017-12-16T08:04:28.041Z,25.85
2017-12-16T08:05:30.538Z,27.73
2017-12-16T08:06:33.016Z,27.37
2017-12-16T08:07:35.693Z,22.17
2017-12-16T08:08:38.150Z,28.03
2017-12-16T08:09:40.633Z,30.23
2017-12-16T08:10:43.109Z,25.97
2017-12-16T08:11:45.583Z,23.62
2017-12-16T08:12:48.050Z,20.47
2017-12-16T08:13:50.545Z,18.50
2017-12-16T08:14:53.047Z,18.85
2017-12-16T08:15:55.530Z,17.20
2017-12-16T08:16:58.005Z,17.97
2017-12-16T08:18:00.471Z,26.40
2017-12-16T08:19:02.939Z,20.43
2017-12-16T08:20:05.424Z,16.63
2017-12-16T08:21:07.904Z,17.23
2017-12-16T08:22:10.406Z,18.63
2017-12-16T08:23:12.871Z,15.93
2017-12-16T08:24:15.424Z,16.30
2017-12-16T08:25:18.482Z,17.40
2017-12-16T08:26:21.010Z,19.60
2017-12-16T08:27:23.481Z,18.73
2017-12-16T08:28:25.993Z,18.47
2017-12-16T08:29:28.463Z,15.30
2017-12-16T08:30:30.931Z,20.13
2017-12-16T08:31:33.398Z,17.27
2017-12-16T08:32:35.877Z,16.73
2017-12-16T08:33:38.356Z,15.03
2017-12-16T08:34:41.077Z,20.50
2017-12-16T08:35:43.538Z,18.63
2017-12-16T08:36:45.998Z,16.17
2017-12-16T08:37:48.500Z,15.50
2017-12-16T08:38:50.966Z,12.93
2017-12-16T08:39:53.426Z,14.30
2017-12-16T08:40:55.902Z,16.47
2017-12-16T08:41:58.392Z,16.40
2017-12-16T08:43:00.850Z,18.80
2017-12-16T08:44:03.333Z,23.60
2017-12-16T08:45:05.820Z,15.60
2017-12-16T08:46:08.291Z,17.53
2017-12-16T08:47:10.759Z,18.93
2017-12-16T08:48:13.219Z,17.07
2017-12-16T08:49:15.737Z,19.83
2017-12-16T08:50:18.220Z,31.40
2017-12-16T08:51:20.755Z,26.37
2017-12-16T08:52:23.237Z,23.90
2017-12-16T08:53:25.721Z,26.67
2017-12-16T08:54:28.182Z,22.70
2017-12-16T08:55:30.638Z,15.83
2017-12-16T08:56:33.107Z,16.87
2017-12-16T08:57:35.603Z,19.63
2017-12-16T08:58:38.132Z,22.33
2017-12-16T08:59:40.561Z,16.33
2017-12-16T09:00:43.027Z,24.97
2017-12-16T09:01:45.536Z,25.63
2017-12-16T09:02:48.008Z,19.37
2017-12-16T09:03:50.481Z,22.07
2017-12-16T09:04:52.947Z,22.57
2017-12-16T09:05:55.415Z,20.97
2017-12-16T09:06:57.927Z,27.00
2017-12-16T09:08:00.407Z,27.90
2017-12-16T09:09:02.885Z,22.43
2017-12-16T09:10:05.369Z,24.90
2017-12-16T09:11:07.836Z,24.40
2017-12-16T09:12:10.348Z,31.13
2017-12-16T09:13:12.824Z,18.43
2017-12-16T09:14:15.301Z,36.17
2017-12-16T09:15:17.780Z,25.93
2017-12-16T09:16:20.264Z,24.57
2017-12-16T09:17:22.741Z,24.57
2017-12-16T09:18:25.218Z,16.40
2017-12-16T09:19:27.701Z,21.93
2017-12-16T09:20:30.258Z,32.40
2017-12-16T09:21:32.718Z,15.57
2017-12-16T09:22:35.186Z,22.70
2017-12-16T09:23:37.661Z,23.27
2017-12-16T09:24:40.140Z,14.13
2017-12-16T09:25:42.616Z,29.30
2017-12-16T09:26:45.075Z,15.00
2017-12-16T09:27:47.556Z,15.13
2017-12-16T09:28:50.033Z,20.03
2017-12-16T09:29:52.490Z,24.40
2017-12-16T09:30:54.966Z,19.20
2017-12-16T09:31:57.528Z,14.67
2017-12-16T09:32:59.999Z,23.63
2017-12-16T09:34:02.467Z,17.03
2017-12-16T09:35:04.989Z,12.47
2017-12-16T09:36:07.455Z,22.63
2017-12-16T09:37:09.916Z,21.23
2017-12-16T09:38:12.481Z,20.77
2017-12-16T09:39:14.939Z,15.23
2017-12-16T09:40:17.406Z,22.13
2017-12-16T09:41:19.866Z,17.43
2017-12-16T09:42:22.341Z,21.63
2017-12-16T09:43:24.817Z,11.87
2017-12-16T09:44:27.294Z,15.47
2017-12-16T09:45:29.768Z,21.10
2017-12-16T09:46:32.355Z,15.83
2017-12-16T09:47:34.899Z,14.53
2017-12-16T09:48:37.568Z,16.53
2017-12-16T09:49:40.079Z,18.90
2017-12-16T09:50:42.561Z,40.43
2017-12-16T09:51:45.027Z,15.10
2017-12-16T09:52:48.302Z,21.23
2017-12-16T09:53:51.089Z,10.90
2017-12-16T09:54:53.569Z,11.73
2017-12-16T09:55:56.045Z,16.43
2017-12-16T09:56:58.525Z,15.93
2017-12-16T09:58:01.021Z,15.47
2017-12-16T09:59:03.508Z,13.57
2017-12-16T10:00:05.971Z,15.13
2017-12-16T10:01:08.434Z,19.20
2017-12-16T10:02:10.911Z,14.07
2017-12-16T10:03:13.384Z,14.57
2017-12-16T10:04:15.872Z,23.53
2017-12-16T10:05:18.383Z,22.27
2017-12-16T10:06:20.847Z,16.90
2017-12-16T10:07:23.345Z,23.30
2017-12-16T10:08:25.823Z,28.10
2017-12-16T10:09:28.369Z,15.40
2017-12-16T10:10:30.833Z,22.77
2017-12-16T10:11:33.309Z,22.37
2017-12-16T10:12:35.790Z,19.20
2017-12-16T10:13:38.281Z,21.30
2017-12-16T10:14:40.741Z,24.13
2017-12-16T10:15:43.236Z,20.97
2017-12-16T10:16:45.706Z,23.10
2017-12-16T10:17:48.190Z,18.40
2017-12-16T10:18:50.651Z,20.60
2017-12-16T10:19:53.139Z,22.03
2017-12-16T10:20:55.603Z,20.87
2017-12-16T10:21:59.065Z,22.33
2017-12-16T10:23:01.606Z,17.00
2017-12-16T10:24:04.084Z,24.33
2017-12-16T10:25:06.551Z,17.90
2017-12-16T10:26:09.029Z,15.40
2017-12-16T10:27:11.510Z,18.80
2017-12-16T10:28:14.030Z,26.40
2017-12-16T10:29:16.506Z,12.33
2017-12-16T10:30:18.966Z,23.63
2017-12-16T10:31:21.455Z,18.33
2017-12-16T10:32:24.374Z,30.80
2017-12-16T10:33:26.863Z,14.07
2017-12-16T10:34:29.337Z,33.87
2017-12-16T10:35:31.821Z,31.57
2017-12-16T10:36:34.300Z,17.67
2017-12-16T10:37:36.823Z,15.47
2017-12-16T10:38:39.306Z,22.50
2017-12-16T10:39:41.784Z,15.03
2017-12-16T10:40:44.285Z,18.67
2017-12-16T10:41:46.898Z,18.47
2017-12-16T10:42:49.381Z,14.40
2017-12-16T10:43:51.867Z,20.40
2017-12-16T10:44:54.347Z,13.67
2017-12-16T10:45:56.825Z,12.83
2017-12-16T10:46:59.525Z,19.40
2017-12-16T10:48:02.006Z,15.30
2017-12-16T10:49:04.491Z,16.97
2017-12-16T10:50:06.994Z,14.13
2017-12-16T10:51:09.477Z,15.40
2017-12-16T10:52:11.953Z,14.50
2017-12-16T10:53:14.423Z,14.83
2017-12-16T10:54:17.014Z,13.97
2017-12-16T10:55:19.731Z,13.77
2017-12-16T10:56:22.368Z,12.30
2017-12-16T10:57:24.847Z,19.93
2017-12-16T10:58:27.349Z,14.83
2017-12-16T10:59:30.015Z,16.37
2017-12-16T11:00:34.843Z,10.53
2017-12-16T11:01:37.467Z,11.77
2017-12-16T11:02:40.440Z,9.57
2017-12-16T11:03:42.903Z,10.87
2017-12-16T11:04:45.901Z,9.53
2017-12-16T11:05:48.385Z,8.60
2017-12-16T11:06:50.856Z,18.90
2017-12-16T11:07:53.336Z,8.70
2017-12-16T11:08:55.794Z,9.90
2017-12-16T11:09:58.290Z,13.87
2017-12-16T11:11:00.755Z,15.17
2017-12-16T11:12:04.033Z,11.93
2017-12-16T11:13:06.558Z,10.60
2017-12-16T11:14:09.618Z,11.27
2017-12-16T11:15:13.143Z,11.13
2017-12-16T11:16:15.616Z,6.80
2017-12-16T11:17:18.605Z,6.60
2017-12-16T11:18:21.498Z,8.53
2017-12-16T11:19:25.345Z,7.93
2017-12-16T11:20:27.919Z,10.23
2017-12-16T11:21:30.394Z,7.30
2017-12-16T11:22:32.873Z,9.47
2017-12-16T11:23:35.356Z,12.90
2017-12-16T11:24:37.854Z,8.20
2017-12-16T11:25:40.350Z,5.97
2017-12-16T11:26:42.825Z,16.40
2017-12-16T11:27:45.347Z,12.43
2017-12-16T11:28:47.912Z,13.03
2017-12-16T11:29:50.608Z,10.27
2017-12-16T11:30:53.111Z,11.17
2017-12-16T11:31:55.571Z,5.90
2017-12-16T11:32:58.041Z,7.27
2017-12-16T11:34:00.744Z,10.03
2017-12-16T11:35:03.239Z,8.53
2017-12-16T11:36:05.730Z,16.07
2017-12-16T11:37:08.220Z,11.20
2017-12-16T11:38:10.698Z,8.93
2017-12-16T11:39:13.170Z,8.40
2017-12-16T11:40:15.692Z,8.70
2017-12-16T11:41:18.193Z,12.20
2017-12-16T11:42:20.668Z,13.97
2017-12-16T11:43:23.143Z,8.77
2017-12-16T11:44:25.619Z,10.30
2017-12-16T11:45:28.087Z,12.53
2017-12-16T11:46:30.597Z,8.93
2017-12-16T11:47:33.062Z,13.13
2017-12-16T11:48:35.540Z,14.13
2017-12-16T11:49:38.016Z,6.23
2017-12-16T11:50:40.478Z,5.47
2017-12-16T11:51:42.959Z,9.73
2017-12-16T11:52:45.515Z,9.43
2017-12-16T11:53:47.989Z,9.40
2017-12-16T11:54:50.444Z,8.90
2017-12-16T11:55:52.910Z,10.33
2017-12-16T11:56:55.391Z,13.47
2017-12-16T11:57:57.866Z,8.00
2017-12-16T11:59:00.341Z,6.73
2017-12-16T12:00:02.815Z,12.60
2017-12-16T12:01:05.288Z,8.77
2017-12-16T12:02:07.818Z,7.53
2017-12-16T12:03:10.297Z,39.83
2017-12-16T12:04:12.759Z,13.53
2017-12-16T12:05:15.229Z,9.77
2017-12-16T12:06:17.691Z,8.43
2017-12-16T12:07:20.209Z,15.17
2017-12-16T12:08:22.668Z,6.47
2017-12-16T12:09:25.146Z,12.83
2017-12-16T12:10:27.625Z,11.33
2017-12-16T12:11:30.140Z,15.57
2017-12-16T12:12:32.645Z,11.33
2017-12-16T12:13:35.103Z,8.40
2017-12-16T12:14:37.562Z,10.50
2017-12-16T12:15:40.042Z,10.80
2017-12-16T12:16:42.533Z,12.67
2017-12-16T12:17:45.038Z,11.77
2017-12-16T12:18:47.519Z,21.90
2017-12-16T12:19:50.108Z,8.83
2017-12-16T12:20:52.585Z,12.73
2017-12-16T12:21:55.125Z,14.47
2017-12-16T12:22:57.666Z,8.13
2017-12-16T12:24:00.144Z,8.03
2017-12-16T12:25:02.629Z,14.13
2017-12-16T12:26:05.096Z,8.60
2017-12-16T12:27:07.621Z,9.37
2017-12-16T12:28:10.102Z,8.00
2017-12-16T12:29:12.559Z,6.97
2017-12-16T12:30:15.037Z,11.17
2017-12-16T12:31:17.504Z,14.20
2017-12-16T12:32:19.981Z,13.03
2017-12-16T12:33:22.480Z,8.33
2017-12-16T12:34:24.951Z,8.07
2017-12-16T12:35:27.434Z,8.70
2017-12-16T12:36:29.914Z,6.73
2017-12-16T12:37:32.383Z,13.97
2017-12-16T12:38:34.881Z,10.63
2017-12-16T12:39:37.346Z,11.60
2017-12-16T12:40:39.807Z,12.93
2017-12-16T12:41:42.281Z,14.60
2017-12-16T12:42:44.735Z,7.73
2017-12-16T12:43:47.235Z,15.87
2017-12-16T12:44:51.081Z,9.57
2017-12-16T12:45:53.621Z,7.27
2017-12-16T12:46:56.096Z,10.80
2017-12-16T12:47:58.570Z,28.20
2017-12-16T12:49:01.061Z,13.20
2017-12-16T12:50:03.536Z,14.03
2017-12-16T12:51:06.000Z,12.50
2017-12-16T12:52:08.472Z,12.60
2017-12-16T12:53:10.953Z,11.53
2017-12-16T12:54:13.446Z,12.20
2017-12-16T12:55:15.922Z,7.90
2017-12-16T12:56:18.393Z,6.00
2017-12-16T12:57:20.864Z,7.53
2017-12-16T12:58:23.331Z,16.30
2017-12-16T12:59:25.833Z,15.67
2017-12-16T13:00:28.310Z,7.30
2017-12-16T13:01:30.774Z,7.47
2017-12-16T13:02:33.259Z,10.03
2017-12-16T13:03:35.737Z,13.70
2017-12-16T13:04:38.236Z,9.00
2017-12-16T13:05:40.725Z,8.93
2017-12-16T13:06:43.190Z,18.27
2017-12-16T13:07:45.669Z,10.53
2017-12-16T13:08:48.189Z,7.67
2017-12-16T13:09:50.671Z,13.67
2017-12-16T13:10:53.131Z,11.47
2017-12-16T13:11:55.661Z,23.20
2017-12-16T13:12:58.153Z,10.77
2017-12-16T13:14:00.633Z,9.73
2017-12-16T13:15:03.128Z,9.00
2017-12-16T13:16:05.587Z,10.30
2017-12-16T13:17:08.055Z,11.40
2017-12-16T13:18:10.528Z,6.50
2017-12-16T13:19:13.001Z,8.87
2017-12-16T13:20:15.497Z,5.87
2017-12-16T13:21:17.981Z,11.47
2017-12-16T13:22:20.461Z,11.13
2017-12-16T13:23:22.941Z,19.13
2017-12-16T13:24:25.439Z,13.73
2017-12-16T13:25:27.945Z,9.97
2017-12-16T13:26:30.471Z,8.33
2017-12-16T13:27:33.032Z,7.93
2017-12-16T13:28:35.511Z,13.07
2017-12-16T13:29:38.060Z,16.13
2017-12-16T13:30:40.555Z,11.47
2017-12-16T13:31:43.015Z,8.00
2017-12-16T13:32:45.512Z,15.00
2017-12-16T13:33:47.985Z,7.63
2017-12-16T13:34:50.483Z,11.43
2017-12-16T13:35:53.007Z,11.37
2017-12-16T13:36:55.485Z,13.07
2017-12-16T13:37:58.019Z,13.70
2017-12-16T13:39:00.511Z,9.03